createdAt,value
2018-02-16T00:01:52.483Z,34.53
2018-02-16T00:04:19.914Z,34.05
2018-02-16T00:06:47.481Z,29.80
2018-02-16T00:09:14.914Z,30.02
2018-02-16T00:11:42.347Z,26.52
2018-02-16T00:14:09.804Z,26.92
2018-02-16T00:16:37.258Z,27.83
2018-02-16T00:19:04.685Z,26.98
2018-02-16T00:21:32.135Z,27.00
2018-02-16T00:23:59.566Z,27.15
2018-02-16T00:26:26.999Z,26.98
2018-02-16T00:28:54.447Z,29.92
2018-02-16T00:31:21.894Z,29.70
2018-02-16T00:33:49.331Z,29.05
2018-02-16T00:36:16.763Z,31.40
2018-02-16T00:38:44.210Z,28.50
2018-02-16T00:41:11.667Z,30.10
2018-02-16T00:43:39.110Z,29.30
2018-02-16T00:46:06.763Z,29.25
2018-02-16T00:48:34.202Z,30.12
2018-02-16T00:51:01.634Z,28.45
2018-02-16T00:53:29.078Z,28.90
2018-02-16T00:55:56.519Z,27.60
2018-02-16T00:58:23.951Z,27.02
2018-02-16T01:00:51.405Z,25.25
2018-02-16T01:03:18.838Z,24.27
2018-02-16T01:05:46.278Z,24.30
2018-02-16T01:08:13.886Z,24.27
2018-02-16T01:10:41.392Z,24.12
2018-02-16T01:13:08.824Z,22.85
2018-02-16T01:15:36.673Z,21.30
2018-02-16T01:18:04.122Z,21.45
2018-02-16T01:20:31.557Z,21.85
2018-02-16T01:22:58.993Z,22.40
2018-02-16T01:25:26.431Z,20.55
2018-02-16T01:27:53.870Z,20.52
2018-02-16T01:30:21.310Z,18.35
2018-02-16T01:32:48.713Z,18.10
2018-02-16T01:35:16.199Z,16.95
2018-02-16T01:37:43.630Z,19.50
2018-02-16T01:40:11.075Z,17.35
2018-02-16T01:42:38.528Z,16.67
2018-02-16T01:45:05.960Z,19.17
2018-02-16T01:47:33.395Z,20.40
2018-02-16T01:50:08.102Z,20.08
2018-02-16T01:52:35.540Z,19.60
2018-02-16T01:55:02.984Z,18.90
2018-02-16T01:57:30.438Z,18.20
2018-02-16T01:59:57.865Z,19.30
2018-02-16T02:02:25.299Z,17.95
2018-02-16T02:04:52.751Z,18.25
2018-02-16T02:07:20.190Z,18.25
2018-02-16T02:09:47.622Z,16.97
2018-02-16T02:12:15.094Z,16.45
2018-02-16T02:14:42.519Z,16.30
2018-02-16T02:17:09.958Z,16.67
2018-02-16T02:19:47.350Z,16.60
2018-02-16T02:22:38.350Z,16.30
2018-02-16T02:25:05.785Z,15.05
2018-02-16T02:27:33.219Z,12.93
2018-02-16T02:30:00.657Z,12.37
2018-02-16T02:32:28.101Z,12.02
2018-02-16T02:34:55.543Z,11.73
2018-02-16T02:37:22.973Z,10.25
2018-02-16T02:39:50.410Z,8.15
2018-02-16T02:42:17.838Z,7.53
2018-02-16T02:44:45.262Z,7.30
2018-02-16T02:47:12.693Z,7.05
2018-02-16T02:49:40.123Z,6.35
2018-02-16T02:52:07.576Z,6.00
2018-02-16T02:54:35.003Z,6.00
2018-02-16T02:57:02.427Z,5.63
2018-02-16T02:59:29.897Z,5.95
2018-02-16T03:01:57.318Z,5.80
2018-02-16T03:04:24.747Z,5.47
2018-02-16T03:06:52.198Z,5.75
2018-02-16T03:09:19.629Z,5.72
2018-02-16T03:11:47.062Z,5.55
2018-02-16T03:14:14.503Z,6.50
2018-02-16T03:16:41.934Z,6.20
2018-02-16T03:19:09.358Z,5.93
2018-02-16T03:21:36.803Z,5.68
2018-02-16T03:24:04.230Z,5.60
2018-02-16T03:26:31.658Z,6.93
2018-02-16T03:28:59.095Z,6.00
2018-02-16T03:31:26.527Z,5.57
2018-02-16T03:33:53.962Z,4.53
2018-02-16T03:36:21.386Z,4.20
2018-02-16T03:38:48.810Z,4.30
2018-02-16T03:41:16.255Z,4.30
2018-02-16T03:43:43.682Z,4.80
2018-02-16T03:46:11.104Z,4.40
2018-02-16T03:48:38.535Z,4.53
2018-02-16T03:51:05.954Z,4.40
2018-02-16T03:53:33.390Z,4.20
2018-02-16T03:56:00.802Z,4.37
2018-02-16T03:58:28.222Z,4.00
2018-02-16T04:00:55.660Z,4.03
2018-02-16T04:03:23.074Z,4.40
2018-02-16T04:05:50.516Z,4.55
2018-02-16T04:08:17.942Z,5.10
2018-02-16T04:10:45.375Z,4.55
2018-02-16T04:13:12.806Z,4.30
2018-02-16T04:15:40.230Z,4.20
2018-02-16T04:18:07.654Z,4.40
2018-02-16T04:20:35.081Z,4.20
2018-02-16T04:23:02.541Z,4.32
2018-02-16T04:25:29.974Z,4.50
2018-02-16T04:27:57.398Z,4.85
2018-02-16T04:30:24.823Z,4.25
2018-02-16T04:32:52.271Z,4.70
2018-02-16T04:35:19.680Z,4.20
2018-02-16T04:37:47.106Z,4.03
2018-02-16T04:40:14.543Z,5.47
2018-02-16T04:42:41.960Z,5.55
2018-02-16T04:45:09.378Z,4.95
2018-02-16T04:47:36.810Z,5.07
2018-02-16T04:50:04.235Z,5.22
2018-02-16T04:52:31.675Z,4.45
2018-02-16T04:54:59.090Z,5.37
2018-02-16T04:57:26.506Z,4.80
2018-02-16T04:59:54.290Z,5.25
2018-02-16T05:02:21.708Z,4.87
2018-02-16T05:04:49.145Z,5.25
2018-02-16T05:07:16.562Z,5.30
2018-02-16T05:09:43.982Z,5.50
2018-02-16T05:12:11.430Z,4.80
2018-02-16T05:14:38.846Z,4.95
2018-02-16T05:17:06.261Z,5.95
2018-02-16T05:19:33.701Z,5.50
2018-02-16T05:22:01.116Z,5.07
2018-02-16T05:24:28.549Z,6.47
2018-02-16T05:26:56.014Z,6.10
2018-02-16T05:29:23.445Z,5.22
2018-02-16T05:31:50.873Z,5.37
2018-02-16T05:34:18.303Z,5.93
2018-02-16T05:36:45.719Z,6.57
2018-02-16T05:39:13.155Z,5.37
2018-02-16T05:41:40.575Z,6.45
2018-02-16T05:44:08.017Z,5.80
2018-02-16T05:46:35.430Z,6.43
2018-02-16T05:49:02.868Z,6.55
2018-02-16T05:51:30.298Z,6.47
2018-02-16T05:53:57.734Z,5.65
2018-02-16T05:56:25.165Z,6.10
2018-02-16T05:58:52.609Z,7.10
2018-02-16T06:01:20.048Z,6.87
2018-02-16T06:03:47.471Z,6.78
2018-02-16T06:06:14.918Z,6.45
2018-02-16T06:08:42.344Z,7.70
2018-02-16T06:11:09.771Z,7.30
2018-02-16T06:13:37.211Z,7.50
2018-02-16T06:16:04.646Z,8.88
2018-02-16T06:18:32.073Z,7.40
2018-02-16T06:20:59.535Z,8.57
2018-02-16T06:23:26.957Z,7.68
2018-02-16T06:25:54.383Z,8.60
2018-02-16T06:28:21.806Z,8.30
2018-02-16T06:30:49.242Z,9.77
2018-02-16T06:33:16.671Z,8.20
2018-02-16T06:35:44.096Z,8.85
2018-02-16T06:38:11.538Z,8.20
2018-02-16T06:40:38.962Z,9.45
2018-02-16T06:43:06.397Z,8.65
2018-02-16T06:45:33.827Z,9.05
2018-02-16T06:48:01.258Z,10.60
2018-02-16T06:50:28.704Z,8.30
2018-02-16T06:52:56.126Z,9.05
2018-02-16T06:55:23.570Z,9.77
2018-02-16T06:57:50.998Z,9.55
2018-02-16T07:00:18.428Z,9.13
2018-02-16T07:02:45.855Z,9.65
2018-02-16T07:05:13.303Z,9.60
2018-02-16T07:07:40.735Z,9.82
2018-02-16T07:10:08.168Z,9.60
2018-02-16T07:12:35.599Z,9.80
2018-02-16T07:15:03.040Z,11.23
2018-02-16T07:17:30.482Z,10.13
2018-02-16T07:19:57.898Z,9.65
2018-02-16T07:22:25.328Z,9.95
2018-02-16T07:24:52.784Z,11.73
2018-02-16T07:27:20.214Z,10.55
2018-02-16T07:29:47.647Z,11.85
2018-02-16T07:32:15.096Z,10.38
2018-02-16T07:34:42.522Z,10.88
2018-02-16T07:37:09.950Z,11.15
2018-02-16T07:39:37.391Z,11.25
2018-02-16T07:42:04.822Z,12.00
2018-02-16T07:44:32.275Z,11.35
2018-02-16T07:46:59.707Z,12.15
2018-02-16T07:49:27.130Z,14.20
2018-02-16T07:51:54.568Z,14.57
2018-02-16T07:54:22.003Z,13.83
2018-02-16T07:56:49.442Z,11.88
2018-02-16T07:59:16.870Z,12.32
2018-02-16T08:01:44.303Z,13.48
2018-02-16T08:04:11.739Z,13.37
2018-02-16T08:06:39.177Z,12.60
2018-02-16T08:09:06.981Z,12.80
2018-02-16T08:11:34.487Z,13.10
2018-02-16T08:14:01.939Z,14.15
2018-02-16T08:16:29.379Z,12.90
2018-02-16T08:18:56.905Z,13.53
2018-02-16T08:21:24.479Z,14.13
2018-02-16T08:23:51.912Z,13.20
2018-02-16T08:26:19.419Z,13.52
2018-02-16T08:28:46.910Z,12.85
2018-02-16T08:31:14.450Z,13.73
2018-02-16T08:33:41.902Z,12.43
2018-02-16T08:36:09.301Z,12.60
2018-02-16T08:38:36.775Z,12.97
2018-02-16T08:41:04.206Z,12.30
2018-02-16T08:43:31.691Z,12.63
2018-02-16T08:45:59.275Z,13.03
2018-02-16T08:48:26.695Z,12.53
2018-02-16T08:50:54.136Z,11.43
2018-02-16T08:53:21.578Z,11.55
2018-02-16T08:55:49.018Z,11.85
2018-02-16T08:58:16.458Z,12.80
2018-02-16T09:00:43.891Z,12.27
2018-02-16T09:03:11.315Z,10.20
2018-02-16T09:05:38.746Z,12.43
2018-02-16T09:08:06.170Z,12.43
2018-02-16T09:10:33.590Z,10.77
2018-02-16T09:13:01.022Z,10.23
2018-02-16T09:15:28.438Z,9.60
2018-02-16T09:17:55.866Z,9.13
2018-02-16T09:20:23.287Z,8.10
2018-02-16T09:22:50.702Z,8.03
2018-02-16T09:25:18.134Z,8.50
2018-02-16T09:27:45.556Z,8.07
2018-02-16T09:30:12.971Z,8.00
2018-02-16T09:32:40.403Z,7.67
2018-02-16T09:35:07.814Z,7.30
2018-02-16T09:37:36.802Z,7.07
2018-02-16T09:40:04.587Z,7.75
2018-02-16T09:42:32.012Z,7.20
2018-02-16T09:44:59.431Z,6.87
2018-02-16T09:47:26.864Z,7.47
2018-02-16T09:49:54.274Z,7.87
2018-02-16T09:52:21.703Z,7.27
2018-02-16T09:54:49.132Z,6.90
2018-02-16T09:57:16.568Z,7.13
2018-02-16T09:59:43.981Z,6.23
2018-02-16T10:02:11.440Z,7.30
2018-02-16T10:04:40.506Z,6.43
2018-02-16T10:07:08.002Z,6.30
2018-02-16T10:09:35.431Z,6.80
2018-02-16T10:12:02.847Z,6.07
2018-02-16T10:14:30.374Z,6.00
2018-02-16T10:16:57.814Z,6.87
2018-02-16T10:19:25.218Z,6.10
2018-02-16T10:21:52.631Z,6.70
2018-02-16T10:24:20.078Z,6.53
2018-02-16T10:26:47.635Z,7.13
2018-02-16T10:29:15.060Z,7.20
2018-02-16T10:31:42.521Z,8.37
2018-02-16T10:34:10.066Z,7.00
2018-02-16T10:36:37.637Z,7.27
2018-02-16T10:39:06.050Z,7.23
2018-02-16T10:41:33.478Z,7.90
2018-02-16T10:44:04.170Z,8.67
2018-02-16T10:46:31.600Z,8.30
2018-02-16T10:48:59.075Z,8.57
2018-02-16T10:51:26.486Z,11.23
2018-02-16T10:53:53.882Z,8.43
2018-02-16T10:56:21.337Z,8.03
2018-02-16T10:58:48.771Z,7.83
2018-02-16T11:01:19.046Z,8.33
2018-02-16T11:03:52.015Z,7.33
2018-02-16T11:06:25.134Z,8.50
2018-02-16T11:08:58.222Z,8.67
2018-02-16T11:11:25.658Z,8.53
2018-02-16T11:13:53.079Z,8.50
2018-02-16T11:16:20.499Z,9.83
2018-02-16T11:18:47.927Z,9.87
2018-02-16T11:21:15.356Z,10.60
2018-02-16T11:23:42.818Z,11.30
2018-02-16T11:26:10.234Z,10.60
2018-02-16T11:28:37.659Z,10.07
2018-02-16T11:31:05.069Z,9.60
2018-02-16T11:33:32.503Z,10.30
2018-02-16T11:35:59.929Z,10.67
2018-02-16T11:38:27.346Z,11.57
2018-02-16T11:40:54.780Z,9.97
2018-02-16T11:43:22.192Z,11.57
2018-02-16T11:45:49.616Z,10.00
2018-02-16T11:48:17.042Z,10.47
2018-02-16T11:50:44.459Z,10.33
2018-02-16T11:53:11.875Z,10.83
2018-02-16T11:55:39.308Z,10.57
2018-02-16T11:58:06.726Z,10.40
2018-02-16T12:00:34.163Z,9.13
2018-02-16T12:03:01.586Z,9.43
2018-02-16T12:05:28.998Z,7.80
2018-02-16T12:07:56.414Z,7.37
2018-02-16T12:10:23.865Z,7.03
2018-02-16T12:12:51.302Z,8.17
2018-02-16T12:15:18.754Z,8.30
2018-02-16T12:17:46.207Z,8.90
2018-02-16T12:20:13.637Z,8.60
2018-02-16T12:22:41.063Z,8.23
2018-02-16T12:25:08.503Z,10.20
2018-02-16T12:27:35.922Z,9.63
2018-02-16T12:30:03.359Z,10.40
2018-02-16T12:32:30.800Z,10.37
2018-02-16T12:34:58.218Z,10.00
2018-02-16T12:37:25.648Z,11.30
2018-02-16T12:39:53.078Z,9.77
2018-02-16T12:42:20.567Z,10.80
2018-02-16T12:44:48.000Z,9.30
2018-02-16T12:47:15.471Z,9.30
2018-02-16T12:49:42.907Z,10.10
2018-02-16T12:52:10.329Z,9.20
2018-02-16T12:54:37.793Z,10.30
2018-02-16T12:57:05.240Z,10.00
2018-02-16T12:59:32.671Z,9.37
2018-02-16T13:02:00.091Z,9.57
2018-02-16T13:04:27.505Z,10.33
2018-02-16T13:06:54.944Z,10.30
2018-02-16T13:09:22.363Z,9.63
2018-02-16T13:11:49.984Z,9.90
2018-02-16T13:14:17.439Z,9.50
2018-02-16T13:16:44.970Z,9.87
2018-02-16T13:19:15.758Z,10.07
2018-02-16T13:21:43.239Z,9.50
2018-02-16T13:24:10.659Z,9.27
2018-02-16T13:26:38.148Z,8.67
2018-02-16T13:29:05.647Z,9.13
2018-02-16T13:31:33.102Z,10.63
2018-02-16T13:34:00.564Z,9.30
2018-02-16T13:36:28.006Z,9.63
2018-02-16T13:38:55.484Z,9.40
2018-02-16T13:41:22.910Z,10.70
2018-02-16T13:43:50.331Z,10.20
2018-02-16T13:46:17.751Z,9.63
2018-02-16T13:48:45.183Z,9.90
2018-02-16T13:51:12.610Z,9.37
2018-02-16T13:53:40.018Z,9.10
2018-02-16T13:56:07.450Z,8.97
2018-02-16T13:58:34.870Z,9.00
2018-02-16T14:01:02.291Z,10.40
2018-02-16T14:03:29.726Z,9.20
2018-02-16T14:05:57.159Z,10.20
2018-02-16T14:08:24.558Z,9.00
2018-02-16T14:10:52.000Z,9.83
2018-02-16T14:13:19.417Z,8.30
2018-02-16T14:15:46.846Z,10.57
2018-02-16T14:18:14.621Z,10.47
2018-02-16T14:20:42.029Z,11.30
2018-02-16T14:23:09.446Z,11.77
2018-02-16T14:25:36.866Z,9.47
2018-02-16T14:28:04.301Z,10.17
2018-02-16T14:30:31.709Z,12.50
2018-02-16T14:32:59.142Z,11.23
2018-02-16T14:35:26.576Z,13.63
2018-02-16T14:37:53.985Z,10.73
2018-02-16T14:40:21.418Z,11.00
2018-02-16T14:42:48.847Z,10.43
2018-02-16T14:45:16.266Z,11.97
2018-02-16T14:47:43.694Z,11.63
2018-02-16T14:50:11.106Z,10.03
2018-02-16T14:52:38.525Z,11.77
2018-02-16T14:55:05.959Z,10.60
2018-02-16T14:57:33.379Z,12.03
2018-02-16T15:00:00.827Z,11.13
2018-02-16T15:02:28.239Z,10.60
2018-02-16T15:04:55.659Z,9.30
2018-02-16T15:07:23.124Z,9.70
2018-02-16T15:09:50.534Z,10.07
2018-02-16T15:12:17.955Z,10.53
2018-02-16T15:14:45.398Z,10.50
2018-02-16T15:17:12.820Z,11.00
2018-02-16T15:19:40.241Z,11.10
2018-02-16T15:22:07.689Z,10.50
2018-02-16T15:24:35.106Z,10.80
2018-02-16T15:27:02.547Z,11.03
2018-02-16T15:29:29.987Z,11.07
2018-02-16T15:31:57.406Z,11.80
2018-02-16T15:34:24.950Z,11.30
2018-02-16T15:36:52.382Z,10.30
2018-02-16T15:39:19.870Z,10.43
2018-02-16T15:41:47.302Z,12.00
2018-02-16T15:44:14.712Z,12.60
2018-02-16T15:46:42.155Z,13.03
2018-02-16T15:49:09.570Z,11.77
2018-02-16T15:51:37.016Z,13.13
2018-02-16T15:54:04.430Z,13.20
2018-02-16T15:56:31.850Z,13.67
2018-02-16T15:58:59.282Z,13.20
2018-02-16T16:01:26.695Z,14.03
2018-02-16T16:03:54.110Z,13.67
2018-02-16T16:06:22.193Z,15.27
2018-02-16T16:08:49.606Z,14.27
2018-02-16T16:11:17.044Z,14.50
2018-02-16T16:13:44.483Z,16.93
2018-02-16T16:16:11.898Z,18.83
2018-02-16T16:18:39.321Z,17.57
2018-02-16T16:21:06.762Z,19.67
2018-02-16T16:23:34.182Z,17.90
2018-02-16T16:26:01.606Z,18.63
2018-02-16T16:28:29.039Z,18.77
2018-02-16T16:30:56.474Z,21.00
2018-02-16T16:33:23.894Z,18.23
2018-02-16T16:35:51.322Z,19.10
2018-02-16T16:38:18.755Z,17.25
2018-02-16T16:40:46.166Z,18.07
2018-02-16T16:43:13.601Z,20.58
2018-02-16T16:45:41.027Z,18.23
2018-02-16T16:48:08.503Z,18.65
2018-02-16T16:50:36.950Z,19.40
2018-02-16T16:53:05.980Z,22.08
2018-02-16T16:55:34.655Z,21.30
2018-02-16T16:58:05.206Z,21.50
2018-02-16T17:00:32.634Z,18.58
2018-02-16T17:03:00.146Z,19.98
2018-02-16T17:05:27.678Z,22.08
2018-02-16T17:07:55.099Z,21.67
2018-02-16T17:10:22.538Z,19.58
2018-02-16T17:12:49.967Z,21.45
2018-02-16T17:15:17.389Z,21.45
2018-02-16T17:17:44.831Z,20.85
2018-02-16T17:20:12.258Z,21.30
2018-02-16T17:22:39.686Z,20.98
2018-02-16T17:25:07.130Z,21.50
2018-02-16T17:27:34.545Z,22.55
2018-02-16T17:30:01.955Z,23.87
2018-02-16T17:32:29.422Z,22.30
2018-02-16T17:34:56.855Z,21.85
2018-02-16T17:37:24.297Z,21.17
2018-02-16T17:39:51.746Z,23.30
2018-02-16T17:42:19.172Z,23.45
2018-02-16T17:44:46.607Z,24.35
2018-02-16T17:47:14.034Z,22.85
2018-02-16T17:49:41.474Z,23.40
2018-02-16T17:52:08.909Z,22.80
2018-02-16T17:54:36.333Z,24.67
2018-02-16T17:57:04.286Z,22.95
2018-02-16T17:59:32.099Z,24.75
2018-02-16T18:01:59.649Z,23.83
2018-02-16T18:04:27.096Z,25.25
2018-02-16T18:06:54.553Z,25.00
2018-02-16T18:09:21.998Z,22.90
2018-02-16T18:11:49.426Z,22.02
2018-02-16T18:14:16.870Z,23.67
2018-02-16T18:16:44.310Z,24.33
2018-02-16T18:19:11.735Z,25.05
2018-02-16T18:21:39.164Z,23.92
2018-02-16T18:24:06.598Z,24.23
2018-02-16T18:26:34.027Z,22.98
2018-02-16T18:29:01.466Z,24.67
2018-02-16T18:31:28.970Z,25.52
2018-02-16T18:33:56.406Z,25.40
2018-02-16T18:36:23.842Z,23.67
2018-02-16T18:38:51.267Z,24.52
2018-02-16T18:41:18.702Z,25.40
2018-02-16T18:43:46.134Z,24.40
2018-02-16T18:46:13.550Z,25.75
2018-02-16T18:48:40.981Z,24.23
2018-02-16T18:51:08.411Z,26.05
2018-02-16T18:53:35.851Z,24.17
2018-02-16T18:56:03.274Z,26.75
2018-02-16T18:58:30.702Z,26.90
2018-02-16T19:00:58.153Z,26.30
2018-02-16T19:03:25.578Z,27.52
2018-02-16T19:05:53.007Z,28.05
2018-02-16T19:08:20.439Z,26.55
2018-02-16T19:10:47.874Z,26.08
2018-02-16T19:13:15.306Z,27.98
2018-02-16T19:15:42.737Z,27.08
2018-02-16T19:18:10.170Z,28.02
2018-02-16T19:20:37.599Z,27.42
2018-02-16T19:23:05.032Z,27.37
2018-02-16T19:25:32.472Z,28.27
2018-02-16T19:27:59.894Z,25.85
2018-02-16T19:30:27.323Z,26.73
2018-02-16T19:32:54.766Z,27.33
2018-02-16T19:35:22.190Z,29.70
2018-02-16T19:37:49.613Z,28.50
2018-02-16T19:40:17.049Z,28.25
2018-02-16T19:42:44.487Z,26.92
2018-02-16T19:45:11.906Z,27.10
2018-02-16T19:47:39.367Z,28.27
2018-02-16T19:50:06.801Z,28.45
2018-02-16T19:52:34.226Z,29.35
2018-02-16T19:55:01.657Z,27.10
2018-02-16T19:57:29.078Z,29.25
2018-02-16T19:59:56.510Z,29.60
2018-02-16T20:02:23.950Z,29.90
2018-02-16T20:04:51.375Z,29.87
2018-02-16T20:07:18.800Z,28.98
2018-02-16T20:09:46.235Z,30.23
2018-02-16T20:12:13.659Z,29.98
2018-02-16T20:14:41.081Z,30.33
2018-02-16T20:17:08.514Z,29.50
2018-02-16T20:19:35.947Z,32.13
2018-02-16T20:22:03.377Z,28.35
2018-02-16T20:24:30.808Z,29.08
2018-02-16T20:26:58.226Z,29.75
2018-02-16T20:29:25.662Z,29.67
2018-02-16T20:31:53.145Z,29.92
2018-02-16T20:34:20.585Z,31.98
2018-02-16T20:36:48.011Z,30.02
2018-02-16T20:39:15.436Z,30.52
2018-02-16T20:41:42.892Z,29.55
2018-02-16T20:44:10.350Z,29.42
2018-02-16T20:46:37.838Z,31.83
2018-02-16T20:49:05.284Z,33.05
2018-02-16T20:51:32.698Z,32.05
2018-02-16T20:54:00.977Z,32.22
2018-02-16T20:56:28.400Z,33.03
2018-02-16T20:58:55.823Z,32.80
2018-02-16T21:01:23.264Z,32.67
2018-02-16T21:03:50.678Z,32.92
2018-02-16T21:06:18.106Z,33.72
2018-02-16T21:08:45.551Z,33.20
2018-02-16T21:11:12.966Z,34.75
2018-02-16T21:13:40.402Z,36.40
2018-02-16T21:16:07.930Z,33.08
2018-02-16T21:18:35.362Z,35.38
2018-02-16T21:21:02.794Z,33.03
2018-02-16T21:23:30.227Z,34.90
2018-02-16T21:25:57.645Z,36.28
2018-02-16T21:28:25.086Z,34.10
2018-02-16T21:30:52.511Z,34.63
2018-02-16T21:33:19.947Z,34.50
2018-02-16T21:35:47.377Z,33.17
2018-02-16T21:38:14.811Z,36.45
2018-02-16T21:40:42.223Z,33.30
2018-02-16T21:43:09.659Z,38.67
2018-02-16T21:45:37.078Z,35.45
2018-02-16T21:48:04.517Z,36.15
2018-02-16T21:50:31.962Z,32.75
2018-02-16T21:52:59.378Z,33.67
2018-02-16T21:55:26.799Z,34.92
2018-02-16T21:57:54.235Z,34.53
2018-02-16T22:00:21.663Z,37.10
2018-02-16T22:02:49.086Z,36.20
2018-02-16T22:05:16.535Z,37.42
2018-02-16T22:07:43.954Z,37.25
2018-02-16T22:10:11.378Z,39.10
2018-02-16T22:12:38.822Z,38.55
2018-02-16T22:15:06.252Z,36.85
2018-02-16T22:17:33.679Z,35.60
2018-02-16T22:20:01.127Z,35.63
2018-02-16T22:22:28.543Z,37.25
2018-02-16T22:24:55.967Z,36.28
2018-02-16T22:27:23.434Z,37.35
2018-02-16T22:29:51.002Z,37.97
2018-02-16T22:32:18.426Z,38.30
2018-02-16T22:34:45.845Z,37.67
2018-02-16T22:37:13.266Z,35.72
2018-02-16T22:39:40.702Z,36.20
2018-02-16T22:42:08.134Z,37.17
2018-02-16T22:44:35.555Z,38.05
2018-02-16T22:47:02.991Z,37.67
2018-02-16T22:49:30.418Z,37.35
2018-02-16T22:51:57.845Z,36.30
2018-02-16T22:54:25.378Z,35.30
2018-02-16T22:56:52.819Z,38.15
2018-02-16T22:59:21.686Z,36.60
2018-02-16T23:01:49.131Z,39.97
2018-02-16T23:04:16.550Z,37.80
2018-02-16T23:06:44.101Z,35.00
2018-02-16T23:09:11.519Z,35.85
2018-02-16T23:11:38.976Z,36.13
2018-02-16T23:14:06.386Z,38.22
2018-02-16T23:16:33.810Z,35.78
2018-02-16T23:19:01.239Z,36.85
2018-02-16T23:21:28.674Z,36.22
2018-02-16T23:23:56.105Z,39.70
2018-02-16T23:26:23.538Z,38.20
2018-02-16T23:28:50.978Z,37.30
2018-02-16T23:31:18.406Z,37.25
2018-02-16T23:33:45.831Z,37.65
2018-02-16T23:36:13.261Z,38.03
2018-02-16T23:38:40.700Z,39.22
2018-02-16T23:41:08.117Z,37.17
2018-02-16T23:43:35.502Z,40.17
2018-02-16T23:46:02.931Z,40.53
2018-02-16T23:48:30.346Z,40.15
2018-02-16T23:50:57.789Z,45.90
2018-02-16T23:53:25.320Z,44.58
2018-02-16T23:55:52.732Z,44.10
2018-02-16T23:58:20.169Z,44.25
